Cranberry, West Virginia
Current Conditions -  °F | °C
As of 9:51 PM on Monday 20 Oct 2014 (Local Time) from KBKW Reporting Station
Overcast Overcast  
Wind Chill: 51°   Ceiling: 4000
Heat Index: 51°   Visibility: 10mi
Dew Point: 44°   Wind: 6mph
Humidity: 77%   Direction: NA
Pressure: 29.99"   Gusts: NA
Location:  37.8169°N, 81.243°W
Report Text: KBKW 210151Z AUTO VRB05KT 10SM FEW030 BKN040 OVC080 11/07 A2999 RMK AO2 SLP153 T01060067 TSNO
Loading
Personal Weather Stations






























Interactive Weather Map
Tropical Storm Tracking
New forecast layout! Learn more

10-Day Weather Forecast

Advertisements
Track Severe Weather on mobile